Home > Products > Valid Products > TAF

000
FTUS44 KMEG 031738
TAFTUP
TAF
KTUP 031738Z 0318/0418 20008KT 3SM BR OVC002
     FM032000 21008KT 3SM BR OVC006
     FM040000 20005KT P6SM SCT006 BKN020
     FM040400 21010KT 3SM BR OVC006
     FM040900 22010KT 3SM BR OVC003=



000
FTUS44 KMEG 031738
TAFJBR
TAF
KJBR 031738Z 0318/0418 23010KT 4SM BR OVC003
     FM032000 23012G18KT 6SM BR OVC007
     FM040000 25010KT 4SM -RA BR VCTS OVC003CB
     FM040300 30010KT 2SM -TSRA BR OVC001CB
     FM040500 36010G15KT 3SM -RA OVC003
     FM040800 03015G20KT 3SM -RA OVC003
     FM041600 03015G20KT 2SM -FZRAPL OVC003=



000
FTUS44 KMEG 031738
TAFMEM
TAF
KMEM 031738Z 0318/0418 21010KT 1SM -DZ BR OVC003
     FM032200 21010KT 2SM -DZ BR OVC007
     FM040000 20010KT 1SM -DZ BR OVC001
     FM040500 22012KT 3SM BR FEW003 SCT010 BKN020
     FM040900 34012G18KT 3SM -RA BR OVC003
     FM041200 01015G20KT 3SM -RA BR OVC003=



000
FTUS44 KMEG 031738
TAFMKL
TAF
KMKL 031738Z 0318/0418 20011G17KT P6SM BKN007 OVC050
     FM040000 20008KT 5SM BR OVC003
     FM040300 21010KT 4SM BR VCSH OVC001
     FM040900 34012G18KT 3SM -RA BR OVC003
     FM041200 36012G18KT 3SM -RA BR OVC003=



000
FTUS44 KMEG 031738
TAFTUP
TAF
KTUP 031738Z 0318/0418 20008KT 3SM BR OVC002
     FM032000 21008KT 3SM BR OVC006
     FM040000 20005KT P6SM SCT006 BKN020
     FM040400 21010KT 3SM BR OVC006
     FM040900 22010KT 3SM BR OVC003=



000
FTUS44 KMEG 031738
TAFMKL
TAF
KMKL 031738Z 0318/0418 20011G17KT P6SM BKN007 OVC050
     FM040000 20008KT 5SM BR OVC003
     FM040300 21010KT 4SM BR VCSH OVC001
     FM040900 34012G18KT 3SM -RA BR OVC003
     FM041200 36012G18KT 3SM -RA BR OVC003=



000
FTUS44 KMEG 031738
TAFMEM
TAF
KMEM 031738Z 0318/0418 21010KT 1SM -DZ BR OVC003
     FM032200 21010KT 2SM -DZ BR OVC007
     FM040000 20010KT 1SM -DZ BR OVC001
     FM040500 22012KT 3SM BR FEW003 SCT010 BKN020
     FM040900 34012G18KT 3SM -RA BR OVC003
     FM041200 01015G20KT 3SM -RA BR OVC003=



000
FTUS44 KMEG 031738
TAFJBR
TAF
KJBR 031738Z 0318/0418 23010KT 4SM BR OVC003
     FM032000 23012G18KT 6SM BR OVC007
     FM040000 25010KT 4SM -RA BR VCTS OVC003CB
     FM040300 30010KT 2SM -TSRA BR OVC001CB
     FM040500 36010G15KT 3SM -RA OVC003
     FM040800 03015G20KT 3SM -RA OVC003
     FM041600 03015G20KT 2SM -FZRAPL OVC003=



000
FTUS44 KMEG 031502 AAA
TAFMEM
TAF AMD
KMEM 031502Z 0315/0412 20010KT 1SM -DZ BR OVC003
     FM031800 21010KT 3SM -DZ BR OVC007
     FM032100 21012KT P6SM OVC015
     FM040000 21010KT P6SM VCSH OVC008
     FM041000 01012G18KT 3SM -RA BR OVC006=



000
FTUS44 KMEG 031347 AAB
TAFJBR
TAF AMD
KJBR 031347Z 0314/0412 19007KT 1/2SM -DZ FG OVC002
     FM031500 20010KT 1SM -DZ BR OVC003
     FM031700 21012KT 5SM -DZ BR OVC007
     FM032000 21013G20KT 4SM BR OVC008
     FM040200 21010KT 4SM -RA BR OVC004
     FM040500 02013G22KT 2SM -RA BR OVC004=



000
FTUS44 KMEG 031347 AAB
TAFJBR
TAF AMD
KJBR 031347Z 0314/0412 19007KT 1/2SM -DZ FG OVC002
     FM031500 20010KT 1SM -DZ BR OVC003
     FM031700 21012KT 5SM -DZ BR OVC007
     FM032000 21013G20KT 4SM BR OVC008
     FM040200 21010KT 4SM -RA BR OVC004
     FM040500 02013G22KT 2SM -RA BR OVC004=



000
FTUS44 KMEG 031305 AAA
TAFJBR
TAF AMD
KJBR 031305Z 0313/0412 18008KT 1SM -DZ BR OVC003
     FM031600 21012KT 5SM -DZ OVC007
     FM032000 21013G20KT 4SM BR OVC008
     FM040200 21010KT 4SM -RA BR OVC004
     FM040500 02013G22KT 2SM -RA BR OVC004=



000
FTUS44 KMEG 031127
TAFTUP
TAF
KTUP 031127Z 0312/0412 16003KT 1SM -DZ BR OVC003
     FM031500 19006KT P6SM OVC007
     FM032100 21008KT 4SM -RA BR OVC004=



000
FTUS44 KMEG 031127
TAFMEM
TAF
KMEM 031127Z 0312/0412 18008KT 1SM -DZ BR OVC003
     FM031500 20009KT 5SM -DZ BR OVC007
     FM032000 21012G18KT P6SM OVC015
     FM040000 21010KT P6SM VCSH OVC008
     FM041000 01012G18KT 3SM -RA BR OVC006=



000
FTUS44 KMEG 031127
TAFJBR
TAF
KJBR 031127Z 0312/0412 18008KT 4SM -DZ BR OVC005
     FM031500 21012KT 5SM -DZ OVC007
     FM032000 21013G20KT 4SM BR OVC008
     FM040200 21010KT 4SM -RA BR OVC004
     FM040500 02013G22KT 2SM -RA BR OVC004=



000
FTUS44 KMEG 031127
TAFTUP
TAF
KTUP 031127Z 0312/0412 16003KT 1SM -DZ BR OVC003
     FM031500 19006KT P6SM OVC007
     FM032100 21008KT 4SM -RA BR OVC004=



000
FTUS44 KMEG 031127
TAFMKL
TAF
KMKL 031127Z 0312/0412 19006KT 4SM -DZ BR OVC004
     FM031800 21010G18KT 4SM BR OVC004
     FM040000 20008KT 4SM BR OVC008
     FM040300 21008KT 4SM BR VCSH OVC008
     FM040900 01012G18KT 3SM -RA BR OVC006=



000
FTUS44 KMEG 031127
TAFMEM
TAF
KMEM 031127Z 0312/0412 18008KT 1SM -DZ BR OVC003
     FM031500 20009KT 5SM -DZ BR OVC007
     FM032000 21012G18KT P6SM OVC015
     FM040000 21010KT P6SM VCSH OVC008
     FM041000 01012G18KT 3SM -RA BR OVC006=



000
FTUS44 KMEG 031127
TAFMKL
TAF
KMKL 031127Z 0312/0412 19006KT 4SM -DZ BR OVC004
     FM031800 21010G18KT 4SM BR OVC004
     FM040000 20008KT 4SM BR OVC008
     FM040300 21008KT 4SM BR VCSH OVC008
     FM040900 01012G18KT 3SM -RA BR OVC006=



000
FTUS44 KMEG 031127
TAFJBR
TAF
KJBR 031127Z 0312/0412 18008KT 4SM -DZ BR OVC005
     FM031500 21012KT 5SM -DZ OVC007
     FM032000 21013G20KT 4SM BR OVC008
     FM040200 21010KT 4SM -RA BR OVC004
     FM040500 02013G22KT 2SM -RA BR OVC004=



000
FTUS44 KMEG 030859 AAA
TAFMKL
TAF AMD
KMKL 030859Z 0309/0406 15005KT 4SM -DZ BR OVC003
     FM031200 18004KT 4SM -DZ BR OVC003
     FM031800 21010KT 4SM BR OVC008
     FM040300 21008KT 4SM BR VCSH OVC008=



000
FTUS44 KMEG 030857 AAB
TAFMEM
TAF AMD
KMEM 030857Z 0309/0406 14006KT 1SM -DZ BR OVC003
     FM031500 18004KT 5SM -DZ BR OVC007
     FM032000 20012G18KT P6SM OVC015
     FM040000 21011G18KT P6SM VCSH OVC008=



000
FTUS44 KMEG 030759 AAA
TAFTUP
TAF AMD
KTUP 030759Z 0308/0406 16003KT 1SM -DZ BR OVC003
     FM031500 19005KT P6SM OVC007
     FM032100 21008KT 4SM -RA BR OVC004=



000
FTUS44 KMEG 030759 AAA
TAFTUP
TAF AMD
KTUP 030759Z 0308/0406 16003KT 1SM -DZ BR OVC003
     FM031500 19005KT P6SM OVC007
     FM032100 21008KT 4SM -RA BR OVC004=



000
FTUS44 KMEG 030715 AAA
TAFMEM
TAF AMD
KMEM 030715Z 0307/0406 13003KT 1SM -DZ BR OVC003
     FM031500 18004KT 5SM -DZ BR OVC007
     FM032000 20012G18KT P6SM OVC015
     FM040000 21011G18KT P6SM VCSH OVC008=



000
FTUS44 KMEG 030715 AAA
TAFMEM
TAF AMD
KMEM 030715Z 0307/0406 13003KT 1SM -DZ BR OVC003
     FM031500 18004KT 5SM -DZ BR OVC007
     FM032000 20012G18KT P6SM OVC015
     FM040000 21011G18KT P6SM VCSH OVC008=



000
FTUS44 KMEG 030520
TAFJBR
TAF
KJBR 030520Z 0306/0406 04004KT P6SM OVC016
     FM030800 07005KT 4SM -DZ BR OVC007
     FM031500 21010KT 5SM -DZ OVC010
     FM032000 21012G18KT 4SM BR OVC008
     FM040200 21010KT 4SM -RA BR OVC004=



000
FTUS44 KMEG 030520
TAFMEM
TAF
KMEM 030520Z 0306/0406 00000KT 5SM -DZ OVC010
     FM030700 13003KT 4SM -DZ BR OVC004
     FM031500 18004KT 5SM -DZ BR OVC007
     FM032000 20012G18KT P6SM OVC015
     FM040000 21011G18KT P6SM VCSH OVC008=



000
FTUS44 KMEG 030520
TAFMKL
TAF
KMKL 030520Z 0306/0406 00000KT P6SM VCSH OVC019
     FM030800 13003KT 4SM -DZ BR OVC009
     FM031200 18004KT 4SM -DZ BR OVC008
     FM031800 21010KT 4SM BR OVC008
     FM040300 21008KT 4SM BR VCSH OVC008=



000
FTUS44 KMEG 030520
TAFTUP
TAF
KTUP 030520Z 0306/0406 16003KT 2SM BR VCSH OVC006
     FM030700 16003KT 2SM -DZ BR OVC003
     FM031500 19005KT P6SM OVC007
     FM032100 21008KT 4SM -RA BR OVC004=



000
FTUS44 KMEG 030410 AAB
TAFMEM
TAF AMD
KMEM 030410Z 0304/0324 11003KT P6SM VCSH OVC012
     FM030600 10005KT 4SM -DZ BR OVC004
     FM031200 18004KT 5SM BR OVC007
     FM031500 20009KT P6SM OVC015
     FM031900 21011G18KT P6SM OVC020=



000
FTUS44 KMEG 030410 AAB
TAFMEM
TAF AMD
KMEM 030410Z 0304/0324 11003KT P6SM VCSH OVC012
     FM030600 10005KT 4SM -DZ BR OVC004
     FM031200 18004KT 5SM BR OVC007
     FM031500 20009KT P6SM OVC015
     FM031900 21011G18KT P6SM OVC020=



000
FTUS44 KMEG 030256 AAA
TAFMEM
TAF AMD
KMEM 030256Z 0303/0324 09004KT P6SM VCSH OVC019
     FM030600 10005KT 4SM -DZ BR OVC004
     FM031200 18004KT 5SM BR OVC007
     FM031500 20009KT P6SM OVC015
     FM031900 21011G18KT P6SM OVC020=



000
FTUS44 KMEG 030256 AAA
TAFMEM
TAF AMD
KMEM 030256Z 0303/0324 09004KT P6SM VCSH OVC019
     FM030600 10005KT 4SM -DZ BR OVC004
     FM031200 18004KT 5SM BR OVC007
     FM031500 20009KT P6SM OVC015
     FM031900 21011G18KT P6SM OVC020=



000
FTUS44 KMEG 022320
TAFMKL
TAF
KMKL 022320Z 0300/0324 00000KT P6SM OVC035
     FM030200 05005KT 6SM BR VCSH OVC025
     FM030800 13003KT 4SM -DZ BR OVC009
     FM031200 18004KT 4SM -DZ BR OVC008
     FM031800 21010KT 4SM BR OVC008=



000
FTUS44 KMEG 022320
TAFTUP
TAF
KTUP 022320Z 0300/0324 05008KT 2SM -RA BR OVC009
     FM030200 06004KT 2SM BR VCSH OVC003
     FM031200 19005KT P6SM OVC007
     FM031500 21008KT 4SM BR OVC004=



000
FTUS44 KMEG 022320
TAFMEM
TAF
KMEM 022320Z 0300/0324 02006KT P6SM OVC019
     FM030100 06005KT 6SM BR VCSH SCT009 OVC015
     FM030600 10005KT 4SM -DZ BR OVC004
     FM031200 18004KT 5SM BR OVC007
     FM031500 20009KT P6SM OVC015
     FM031900 21011G18KT P6SM OVC020=



000
FTUS44 KMEG 022320
TAFJBR
TAF
KJBR 022320Z 0300/0324 04008KT P6SM BKN030 OVC040
     FM030200 06005KT P6SM OVC015
     FM030800 07005KT 4SM -DZ BR OVC004
     FM031200 18008KT 4SM -DZ BR OVC007
     FM031500 21010KT 6SM HZ OVC015
     FM032100 21012G18KT 4SM BR OVC008=



000
FTUS44 KMEG 022320
TAFTUP
TAF
KTUP 022320Z 0300/0324 05008KT 2SM -RA BR OVC009
     FM030200 06004KT 2SM BR VCSH OVC003
     FM031200 19005KT P6SM OVC007
     FM031500 21008KT 4SM BR OVC004=



000
FTUS44 KMEG 022320
TAFMEM
TAF
KMEM 022320Z 0300/0324 02006KT P6SM OVC019
     FM030100 06005KT 6SM BR VCSH SCT009 OVC015
     FM030600 10005KT 4SM -DZ BR OVC004
     FM031200 18004KT 5SM BR OVC007
     FM031500 20009KT P6SM OVC015
     FM031900 21011G18KT P6SM OVC020=



000
FTUS44 KMEG 022320
TAFMKL
TAF
KMKL 022320Z 0300/0324 00000KT P6SM OVC035
     FM030200 05005KT 6SM BR VCSH OVC025
     FM030800 13003KT 4SM -DZ BR OVC009
     FM031200 18004KT 4SM -DZ BR OVC008
     FM031800 21010KT 4SM BR OVC008=



000
FTUS44 KMEG 022320
TAFJBR
TAF
KJBR 022320Z 0300/0324 04008KT P6SM BKN030 OVC040
     FM030200 06005KT P6SM OVC015
     FM030800 07005KT 4SM -DZ BR OVC004
     FM031200 18008KT 4SM -DZ BR OVC007
     FM031500 21010KT 6SM HZ OVC015
     FM032100 21012G18KT 4SM BR OVC008=



000
FTUS44 KMEG 022101 AAA
TAFTUP
TAF AMD
KTUP 022101Z 0221/0318 08010KT P6SM OVC010
     FM030200 06004KT 3SM BR VCSH OVC004
     FM031200 19005KT P6SM OVC007=



000
FTUS44 KMEG 022101 AAA
TAFTUP
TAF AMD
KTUP 022101Z 0221/0318 08010KT P6SM OVC010
     FM030200 06004KT 3SM BR VCSH OVC004
     FM031200 19005KT P6SM OVC007=



000
FTUS44 KMEG 022100 AAA
TAFMEM
TAF AMD
KMEM 022100Z 0221/0318 08005KT P6SM OVC025
     FM030100 06005KT 6SM BR VCSH SCT009 OVC015
     FM030600 10005KT 5SM -RA BR OVC004 WS020/20035KT
     FM031200 18004KT P6SM OVC007=



000
FTUS44 KMEG 022100 AAA
TAFMEM
TAF AMD
KMEM 022100Z 0221/0318 08005KT P6SM OVC025
     FM030100 06005KT 6SM BR VCSH SCT009 OVC015
     FM030600 10005KT 5SM -RA BR OVC004 WS020/20035KT
     FM031200 18004KT P6SM OVC007=



000
FTUS44 KMEG 021726
TAFJBR
TAF
KJBR 021726Z 0218/0318 04015KT P6SM OVC035
     FM030200 06005KT P6SM OVC015
     FM030800 07005KT P6SM VCSH OVC004 WS020/20040KT
     FM031200 18008KT P6SM OVC007=



000
FTUS44 KMEG 021726
TAFMKL
TAF
KMKL 021726Z 0218/0318 09010KT P6SM OVC035
     FM030200 05005KT 6SM BR VCSH OVC025
     FM030600 13003KT 5SM -RA BR OVC009 WS020/21035KT
     FM031200 18004KT P6SM OVC007=



000
FTUS44 KMEG 021726
TAFMEM
TAF
KMEM 021726Z 0218/0318 06009KT P6SM OVC025
     FM030100 06005KT 6SM BR VCSH SCT009 OVC015
     FM030600 10005KT 5SM -RA BR OVC004 WS020/20035KT
     FM031200 18004KT P6SM OVC007=



000
FTUS44 KMEG 021726
TAFTUP
TAF
KTUP 021726Z 0218/0318 08010KT P6SM VCSH OVC009
     FM030200 06004KT 3SM BR VCSH OVC004
     FM031200 19005KT P6SM OVC007=



000
FTUS44 KMEG 021726
TAFJBR
TAF
KJBR 021726Z 0218/0318 04015KT P6SM OVC035
     FM030200 06005KT P6SM OVC015
     FM030800 07005KT P6SM VCSH OVC004 WS020/20040KT
     FM031200 18008KT P6SM OVC007=



000
FTUS44 KMEG 021726
TAFMEM
TAF
KMEM 021726Z 0218/0318 06009KT P6SM OVC025
     FM030100 06005KT 6SM BR VCSH SCT009 OVC015
     FM030600 10005KT 5SM -RA BR OVC004 WS020/20035KT
     FM031200 18004KT P6SM OVC007=



000
FTUS44 KMEG 021726
TAFMKL
TAF
KMKL 021726Z 0218/0318 09010KT P6SM OVC035
     FM030200 05005KT 6SM BR VCSH OVC025
     FM030600 13003KT 5SM -RA BR OVC009 WS020/21035KT
     FM031200 18004KT P6SM OVC007=



000
FTUS44 KMEG 021726
TAFTUP
TAF
KTUP 021726Z 0218/0318 08010KT P6SM VCSH OVC009
     FM030200 06004KT 3SM BR VCSH OVC004
     FM031200 19005KT P6SM OVC007=



000
FTUS44 KMEG 021500 AAA
TAFMKL
TAF AMD
KMKL 021500Z 0215/0312 05013KT P6SM BKN035
     FM021800 03009KT P6SM SCT015 OVC025
     FM030200 05005KT 6SM BR VCSH BKN015 OVC025
     FM030700 07004KT 5SM -RA BR BKN009 OVC015 WS020/21035KT=



000
FTUS44 KMEG 021459 AAA
TAFMEM
TAF AMD
KMEM 021459Z 0215/0312 04013KT P6SM SCT015 OVC025
     FM030100 06005KT 6SM BR VCSH SCT009 OVC015
     FM030600 10005KT 5SM -RA BR BKN009 OVC015 WS020/20035KT=



000
FTUS44 KMEG 021414 AAA
TAFTUP
TAF AMD
KTUP 021414Z 0214/0312 04014G20KT 6SM BR VCSH OVC005
      TEMPO 0214/0216 2SM BR
     FM021900 07010KT 6SM -RA BR BKN007 OVC012
     FM030100 06004KT 3SM -DZ BR VCSH OVC004=



000
FTUS44 KMEG 021129
TAFJBR
TAF
KJBR 021129Z 0212/0312 03010G15KT P6SM FEW015 OVC035
     FM022000 06009KT P6SM FEW015 OVC025
     FM030200 06005KT P6SM OVC015
     FM030700 07005KT P6SM VCSH BKN009 OVC015 WS020/20040KT=



000
FTUS44 KMEG 021129
TAFMKL
TAF
KMKL 021129Z 0212/0312 02010G17KT P6SM BKN015 OVC025
      TEMPO 0214/0218 SCT015
     FM021800 03009KT P6SM SCT015 OVC025
     FM030200 05005KT 6SM BR VCSH BKN015 OVC025
     FM030700 07004KT 5SM -RA BR BKN009 OVC015 WS020/21035KT=



000
FTUS44 KMEG 021129
TAFMEM
TAF
KMEM 021129Z 0212/0312 03010G15KT P6SM BKN015 OVC025
      TEMPO 0214/0218 SCT015
     FM021800 04009KT P6SM SCT015 OVC025
     FM030100 06005KT 6SM BR VCSH SCT009 OVC015
     FM030600 10005KT 5SM -RA BR BKN009 OVC015 WS020/20035KT=



000
FTUS44 KMEG 021129
TAFTUP
TAF
KTUP 021129Z 0212/0312 04014G20KT 6SM BR VCSH OVC007
      TEMPO 0212/0216 5SM -RA
     FM021900 07010KT 6SM -RA BR BKN007 OVC012
     FM030100 06004KT 3SM -DZ BR VCSH OVC004=



000
FTUS44 KMEG 021129
TAFMEM
TAF
KMEM 021129Z 0212/0312 03010G15KT P6SM BKN015 OVC025
      TEMPO 0214/0218 SCT015
     FM021800 04009KT P6SM SCT015 OVC025
     FM030100 06005KT 6SM BR VCSH SCT009 OVC015
     FM030600 10005KT 5SM -RA BR BKN009 OVC015 WS020/20035KT=



000
FTUS44 KMEG 021129
TAFJBR
TAF
KJBR 021129Z 0212/0312 03010G15KT P6SM FEW015 OVC035
     FM022000 06009KT P6SM FEW015 OVC025
     FM030200 06005KT P6SM OVC015
     FM030700 07005KT P6SM VCSH BKN009 OVC015 WS020/20040KT=



000
FTUS44 KMEG 021129
TAFMKL
TAF
KMKL 021129Z 0212/0312 02010G17KT P6SM BKN015 OVC025
      TEMPO 0214/0218 SCT015
     FM021800 03009KT P6SM SCT015 OVC025
     FM030200 05005KT 6SM BR VCSH BKN015 OVC025
     FM030700 07004KT 5SM -RA BR BKN009 OVC015 WS020/21035KT=



000
FTUS44 KMEG 020906 AAA
TAFTUP
TAF AMD
KTUP 020906Z 0209/0306 03010G16KT 6SM BR VCSH OVC005
      TEMPO 0209/0213 -SHRA OVC004
     FM021300 04012KT 6SM -RA BR BKN007 OVC010
     FM021800 07010KT 6SM -RA BR BKN009 OVC012
     FM030100 06004KT 3SM BR VCSH OVC003=



000
FTUS44 KMEG 020906 AAA
TAFTUP
TAF AMD
KTUP 020906Z 0209/0306 03010G16KT 6SM BR VCSH OVC005
      TEMPO 0209/0213 -SHRA OVC004
     FM021300 04012KT 6SM -RA BR BKN007 OVC010
     FM021800 07010KT 6SM -RA BR BKN009 OVC012
     FM030100 06004KT 3SM BR VCSH OVC003=



000
FTUS44 KMEG 020859 AAA
TAFMEM
TAF AMD
KMEM 020859Z 0209/0306 04012G19KT P6SM BKN009 OVC012
     FM021000 04012G19KT P6SM BKN012 OVC025
     FM021400 04010G16KT P6SM VCSH BKN035 OVC060
     FM022300 06005KT P6SM SCT009 OVC015
     FM030400 08005KT 6SM BR OVC009=



000
FTUS44 KMEG 020859 AAA
TAFMEM
TAF AMD
KMEM 020859Z 0209/0306 04012G19KT P6SM BKN009 OVC012
     FM021000 04012G19KT P6SM BKN012 OVC025
     FM021400 04010G16KT P6SM VCSH BKN035 OVC060
     FM022300 06005KT P6SM SCT009 OVC015
     FM030400 08005KT 6SM BR OVC009=



000
FTUS44 KMEG 020524
TAFMKL
TAF
KMKL 020524Z 0206/0306 35008KT 5SM -DZ BKN005 OVC015
      TEMPO 0206/0208 2SM -DZ BR
     FM021200 03011KT P6SM VCSH SCT008 OVC015
     FM030200 05004KT 6SM BR OVC009=



000
FTUS44 KMEG 020524
TAFJBR
TAF
KJBR 020524Z 0206/0306 02008KT P6SM FEW015 OVC030
      TEMPO 0208/0212 OVC015
     FM021600 04012G18KT P6SM OVC025
     FM030200 05005KT P6SM OVC015=



000
FTUS44 KMEG 020524
TAFTUP
TAF
KTUP 020524Z 0206/0306 VRB03KT 2SM -RA BR OVC005
      TEMPO 0206/0210 1SM -RA BR OVC002
     FM021300 04012KT 2SM -RA BR OVC007
     FM021800 07010KT 6SM -RA BR BKN009 OVC012
     FM030100 06004KT 3SM BR VCSH OVC003=



000
FTUS44 KMEG 020524
TAFMEM
TAF
KMEM 020524Z 0206/0306 02009KT 3SM -RA BKN007 OVC015
     FM021000 02011KT 6SM BR VCSH BKN010 OVC020
     FM021400 04012G19KT P6SM VCSH OVC015
     FM022300 06005KT P6SM SCT009 OVC015
     FM030400 08005KT 6SM BR OVC009=



000
FTUS44 KMEG 020330 AAA
TAFMKL
TAF AMD
KMKL 020330Z 0204/0224 35005KT 6SM -RA BR SCT006 OVC015
      TEMPO 0204/0206 3SM BR BKN006
     FM021300 03012G18KT P6SM VCSH BKN008 OVC015=



000
FTUS44 KMEG 020330 AAA
TAFMKL
TAF AMD
KMKL 020330Z 0204/0224 35005KT 6SM -RA BR SCT006 OVC015
      TEMPO 0204/0206 3SM BR BKN006
     FM021300 03012G18KT P6SM VCSH BKN008 OVC015=



000
FTUS44 KMEG 020310 AAA
TAFMEM
TAF AMD
KMEM 020310Z 0203/0224 02007KT 5SM -RA OVC005
     FM021000 02011KT 4SM -RA BR BKN008 OVC012
     FM021400 04014G20KT P6SM VCSH BKN009 OVC015=



000
FTUS44 KMEG 020310 AAA
TAFMEM
TAF AMD
KMEM 020310Z 0203/0224 02007KT 5SM -RA OVC005
     FM021000 02011KT 4SM -RA BR BKN008 OVC012
     FM021400 04014G20KT P6SM VCSH BKN009 OVC015=



000
FTUS44 KMEG 012340 CCA
TAFMKL
TAF COR
KMKL 012340Z 0200/0224 35005KT 1SM -RA BR OVC003
     FM021000 01011KT 3SM -RA BR VCSH BKN003 OVC010
      TEMPO 0211/0213 3SM -FZRA BR
     FM021300 03012G18KT P6SM VCSH BKN008 OVC015=



000
FTUS44 KMEG 012340 CCA
TAFMKL
TAF COR
KMKL 012340Z 0200/0224 35005KT 1SM -RA BR OVC003
     FM021000 01011KT 3SM -RA BR VCSH BKN003 OVC010
      TEMPO 0211/0213 3SM -FZRA BR
     FM021300 03012G18KT P6SM VCSH BKN008 OVC015=



000
FTUS44 KMEG 012336
TAFMKL
TAF
KMKL 012336Z 0200/0224 35005KT 1SM -RA BR OVC003
     FM021000 01011KT 3SM -RA BR VCSH BKN003 OVC010
     FM021300 03012G18KT P6SM VCSH BKN008 OVC015=



000
FTUS44 KMEG 012336
TAFMEM
TAF
KMEM 012336Z 0200/0224 01005KT 3SM -RA OVC003
      TEMPO 0203/0207 1SM -RA BR
     FM021000 02011KT 4SM -RA BR BKN005 OVC012
     FM021400 04014G20KT P6SM VCSH BKN008 OVC015=



000
FTUS44 KMEG 012336
TAFJBR
TAF
KJBR 012336Z 0200/0224 02005KT P6SM VCSH SCT005 BKN015 OVC035
     FM020300 02008KT 4SM BR VCSH BKN005 OVC015
      TEMPO 0203/0207 2SM -RA BR
     FM020800 04012G18KT P6SM VCSH SCT005 OVC015
     FM022200 06007KT P6SM OVC020=



000
FTUS44 KMEG 012336
TAFTUP
TAF
KTUP 012336Z 0200/0224 03005KT 2SM -RA BR OVC005
     FM020300 03004KT 2SM -RA BR OVC003
      TEMPO 0203/0205 1SM -RA BR
     FM021200 03010KT 3SM -RA BR OVC005
     FM021300 04012G20KT 5SM -RA BR OVC007=



000
FTUS44 KMEG 012336
TAFJBR
TAF
KJBR 012336Z 0200/0224 02005KT P6SM VCSH SCT005 BKN015 OVC035
     FM020300 02008KT 4SM BR VCSH BKN005 OVC015
      TEMPO 0203/0207 2SM -RA BR
     FM020800 04012G18KT P6SM VCSH SCT005 OVC015
     FM022200 06007KT P6SM OVC020=



000
FTUS44 KMEG 012336
TAFTUP
TAF
KTUP 012336Z 0200/0224 03005KT 2SM -RA BR OVC005
     FM020300 03004KT 2SM -RA BR OVC003
      TEMPO 0203/0205 1SM -RA BR
     FM021200 03010KT 3SM -RA BR OVC005
     FM021300 04012G20KT 5SM -RA BR OVC007=



000
FTUS44 KMEG 012336
TAFMEM
TAF
KMEM 012336Z 0200/0224 01005KT 3SM -RA OVC003
      TEMPO 0203/0207 1SM -RA BR
     FM021000 02011KT 4SM -RA BR BKN005 OVC012
     FM021400 04014G20KT P6SM VCSH BKN008 OVC015=



000
FTUS44 KMEG 012336
TAFMKL
TAF
KMKL 012336Z 0200/0224 35005KT 1SM -RA BR OVC003
     FM021000 01011KT 3SM -RA BR VCSH BKN003 OVC010
     FM021300 03012G18KT P6SM VCSH BKN008 OVC015=



000
FTUS44 KMEG 012141 AAA
TAFTUP
TAF AMD
KTUP 012141Z 0122/0218 21007KT 6SM -SHRA OVC008
     FM020100 09005KT 3SM -RA BR OVC005
     FM020800 03010G16KT 3SM -RA BR BKN005 OVC010
     FM021300 03012G20KT 5SM -RA BR OVC007=



000
FTUS44 KMEG 012101 AAB
TAFMEM
TAF AMD
KMEM 012101Z 0121/0218 VRB03KT 1SM -SHRA BKN005 OVC010
     FM020000 02008KT 4SM -RA BR BKN005 OVC012
     FM021000 04014G20KT P6SM VCSH SCT008 OVC015=



000
FTUS44 KMEG 012101 AAB
TAFMEM
TAF AMD
KMEM 012101Z 0121/0218 VRB03KT 1SM -SHRA BKN005 OVC010
     FM020000 02008KT 4SM -RA BR BKN005 OVC012
     FM021000 04014G20KT P6SM VCSH SCT008 OVC015=



000
FTUS44 KMEG 012012 AAA
TAFMKL
TAF AMD
KMKL 012012Z 0120/0218 33003KT 1SM -RA BR BKN004 OVC010
     FM020100 01008KT 3SM BR VCSH BKN008 OVC012
     FM021300 03012G18KT P6SM VCSH SCT005 OVC015=



000
FTUS44 KMEG 011904 AAA
TAFMEM
TAF AMD
KMEM 011904Z 0119/0218 VRB03KT 2SM -SHRA BKN003 OVC010
     FM020000 02008KT 4SM -RA BR BKN005 OVC012
     FM021000 04014G20KT P6SM VCSH SCT008 OVC015=



000
FTUS44 KMEG 011720
TAFMEM
TAF
KMEM 011720Z 0118/0218 VRB03KT 3SM -SHRA SCT003 OVC010
     FM020000 02008KT 4SM -RA BR BKN005 OVC012
     FM021000 04014G20KT P6SM VCSH SCT008 OVC015=



000
FTUS44 KMEG 011720
TAFMEM
TAF
KMEM 011720Z 0118/0218 VRB03KT 3SM -SHRA SCT003 OVC010
     FM020000 02008KT 4SM -RA BR BKN005 OVC012
     FM021000 04014G20KT P6SM VCSH SCT008 OVC015=



000
FTUS44 KMEG 011720
TAFJBR
TAF
KJBR 011720Z 0118/0218 VRB02KT P6SM VCSH SCT012 OVC035
     FM020000 02008KT P6SM VCSH BKN005 OVC015
      TEMPO 0204/0208 3SM BR
     FM021100 04012G18KT P6SM SCT012 SCT015 OVC025=



000
FTUS44 KMEG 011720
TAFMKL
TAF
KMKL 011720Z 0118/0218 VRB03KT 4SM -SHRA BR BKN004 OVC010
      TEMPO 0119/0122 SCT004
     FM020100 01008KT 3SM BR VCSH BKN008 OVC012
     FM021300 03012G18KT P6SM VCSH SCT005 OVC015=



000
FTUS44 KMEG 011720
TAFTUP
TAF
KTUP 011720Z 0118/0218 02007KT 5SM -SHRA OVC010
      TEMPO 0119/0123 3SM SHRA BR
     FM020100 09005KT 3SM -RA BR OVC005
     FM020800 03010G16KT 3SM -RA BR BKN005 OVC010
     FM021300 03012G20KT 5SM -RA BR OVC007=



000
FTUS44 KMEG 011502 AAB
TAFMEM
TAF AMD
KMEM 011502Z 0115/0212 04004KT P6SM VCSH BKN015 OVC060
      TEMPO 0115/0116 2SM RA
     FM011700 VRB03KT P6SM VCSH BKN009 OVC010
      TEMPO 0118/0122 SCT006
     FM020100 02008KT P6SM -RA BKN008 OVC012
     FM020800 02014G22KT P6SM VCSH SCT008 OVC015=



000
FTUS44 KMEG 011502 AAB
TAFMEM
TAF AMD
KMEM 011502Z 0115/0212 04004KT P6SM VCSH BKN015 OVC060
      TEMPO 0115/0116 2SM RA
     FM011700 VRB03KT P6SM VCSH BKN009 OVC010
      TEMPO 0118/0122 SCT006
     FM020100 02008KT P6SM -RA BKN008 OVC012
     FM020800 02014G22KT P6SM VCSH SCT008 OVC015=



000
FTUS44 KMEG 011419 AAB
TAFMKL
TAF AMD
KMKL 011419Z 0114/0212 VRB03KT 5SM -SHRA BKN008 OVC060
     FM011700 VRB03KT 5SM -SHRA BR BKN006 OVC010
      TEMPO 0118/0122 SCT006
     FM020100 36008KT P6SM VCSH BKN008 OVC012
     FM020800 02012G18KT P6SM SCT008 OVC015=



000
FTUS44 KMEG 011417 AAA
TAFMEM
TAF AMD
KMEM 011417Z 0114/0212 35004KT P6SM VCSH SCT015 OVC060
      TEMPO 0114/0117 5SM -SHRA OVC025
     FM011700 VRB03KT 5SM -SHRA BR BKN006 OVC010
      TEMPO 0118/0122 SCT006
     FM020100 02008KT P6SM -RA BKN008 OVC012
     FM020800 02014G22KT P6SM VCSH SCT008 OVC015=



000
FTUS44 KMEG 011417 AAA
TAFMEM
TAF AMD
KMEM 011417Z 0114/0212 35004KT P6SM VCSH SCT015 OVC060
      TEMPO 0114/0117 5SM -SHRA OVC025
     FM011700 VRB03KT 5SM -SHRA BR BKN006 OVC010
      TEMPO 0118/0122 SCT006
     FM020100 02008KT P6SM -RA BKN008 OVC012
     FM020800 02014G22KT P6SM VCSH SCT008 OVC015=



000
FTUS44 KMEG 011354 AAA
TAFTUP
TAF AMD
KTUP 011354Z 0114/0212 22005KT P6SM VCSH BKN009 OVC012
     FM011500 22007KT 6SM -SHRA BKN006 OVC010
      TEMPO 0119/0123 4SM SHRA BR SCT006
     FM020100 09005KT 6SM -SHRA OVC006
     FM020800 03010G16KT P6SM VCSH SCT006 OVC010=



000
FTUS44 KMEG 011211 AAA
TAFMKL
TAF AMD
KMKL 011211Z 0112/0212 VRB03KT P6SM VCSH BKN015 OVC060
      TEMPO 0113/0117 -SHRA
     FM011700 VRB03KT 5SM -SHRA BR BKN006 OVC010
      TEMPO 0118/0122 SCT006
     FM020100 36008KT P6SM VCSH BKN008 OVC012
     FM020800 02012G18KT P6SM SCT008 OVC015=



000
FTUS44 KMEG 011126
TAFTUP
TAF
KTUP 011126Z 0112/0212 16005KT P6SM SCT006 OVC010
     FM011500 19007KT P6SM VCSH BKN006 OVC010
     FM011900 VRB03KT 6SM -SHRA BKN006 OVC010
      TEMPO 0119/0123 4SM SHRA BR SCT006
     FM020100 09005KT 6SM -SHRA OVC006
     FM020800 03010G16KT P6SM VCSH SCT006 OVC010=



000
FTUS44 KMEG 011126
TAFJBR
TAF
KJBR 011126Z 0112/0212 VRB03KT P6SM -SHRA SCT015 OVC050
      TEMPO 0112/0115 -FZRAPL
     FM011700 VRB03KT 5SM -SHRA BKN012 OVC035
     FM020000 02008KT P6SM VCSH BKN012 OVC020
     FM020600 02012G18KT P6SM SCT012 OVC020=



000
FTUS44 KMEG 011126
TAFMKL
TAF
KMKL 011126Z 0112/0212 19005KT P6SM VCSH SCT015 OVC060
      TEMPO 0113/0117 -SHRA BKN015
     FM011700 VRB03KT 5SM -SHRA BR BKN006 OVC010
      TEMPO 0118/0122 SCT006
     FM020100 36008KT P6SM VCSH BKN008 OVC012
     FM020800 02012G18KT P6SM SCT008 OVC015=



000
FTUS44 KMEG 011126
TAFMEM
TAF
KMEM 011126Z 0112/0212 09005KT P6SM VCSH SCT015 OVC060
      TEMPO 0113/0117 -SHRA BKN015
     FM011700 VRB03KT 5SM -SHRA BR BKN006 OVC010
      TEMPO 0118/0122 SCT006
     FM020100 02008KT P6SM -RA BKN008 OVC012
     FM020800 02014G22KT P6SM VCSH SCT008 OVC015=



000
FTUS44 KMEG 010903 AAA
TAFJBR
TAF AMD
KJBR 010903Z 0109/0206 03005KT P6SM VCSH SCT040 OVC060
      WS020/18050KT
      TEMPO 0109/0112 -FZRAPL
     FM011200 04004KT 6SM -SHRA SCT015 OVC040
     FM011400 VRB03KT 5SM -SHRA BR BKN010 OVC035
     FM011900 02005KT 4SM -SHRA OVC008
     FM020000 02007KT P6SM VCSH OVC010=



000
FTUS44 KMEG 010903 AAA
TAFJBR
TAF AMD
KJBR 010903Z 0109/0206 03005KT P6SM VCSH SCT040 OVC060
      WS020/18050KT
      TEMPO 0109/0112 -FZRAPL
     FM011200 04004KT 6SM -SHRA SCT015 OVC040
     FM011400 VRB03KT 5SM -SHRA BR BKN010 OVC035
     FM011900 02005KT 4SM -SHRA OVC008
     FM020000 02007KT P6SM VCSH OVC010=



000
FTUS44 KMEG 010900 AAA
TAFMKL
TAF AMD
KMKL 010900Z 0109/0206 03004KT P6SM VCSH BKN025 OVC060
      TEMPO 0112/0114 -SHRA
     FM011400 19005KT 6SM -SHRA BKN015 OVC045
     FM011600 VRB03KT 5SM -SHRA BR OVC008
     FM012300 01005KT 6SM BR VCSH OVC005=



000
FTUS44 KMEG 010900 AAA
TAFMKL
TAF AMD
KMKL 010900Z 0109/0206 03004KT P6SM VCSH BKN025 OVC060
      TEMPO 0112/0114 -SHRA
     FM011400 19005KT 6SM -SHRA BKN015 OVC045
     FM011600 VRB03KT 5SM -SHRA BR OVC008
     FM012300 01005KT 6SM BR VCSH OVC005=



000
FTUS44 KMEG 010859 AAA
TAFMEM
TAF AMD
KMEM 010859Z 0109/0206 05006KT P6SM VCSH FEW025 OVC070
      WS020/18050KT
      TEMPO 0111/0114 -SHRA BKN025 OVC050
     FM011400 11005KT 6SM -SHRA BKN015 OVC045
     FM011800 VRB03KT 5SM -SHRA BR OVC009
     FM020000 02007KT P6SM VCSH OVC007=



000
FTUS44 KMEG 010848 AAA
TAFTUP
TAF AMD
KTUP 010848Z 0109/0206 VRB03KT P6SM OVC020
     FM011000 14004KT P6SM OVC015
     FM011600 19007KT 4SM -SHRA BKN009 OVC015
     FM020200 06004KT 6SM -SHRA OVC006=



000
FTUS44 KMEG 010848 AAA
TAFTUP
TAF AMD
KTUP 010848Z 0109/0206 VRB03KT P6SM OVC020
     FM011000 14004KT P6SM OVC015
     FM011600 19007KT 4SM -SHRA BKN009 OVC015
     FM020200 06004KT 6SM -SHRA OVC006=



000
FTUS44 KMEG 010538
TAFMEM
TAF
KMEM 010538Z 0106/0206 02004KT P6SM VCSH FEW050 OVC090
      WS020/18050KT
      TEMPO 0110/0114 -SHRA SCT025 OVC060
     FM011400 11005KT 6SM -SHRA BKN015 OVC045
     FM011800 VRB03KT 5SM -SHRA BR OVC009
     FM020000 02007KT P6SM VCSH OVC007=



000
FTUS44 KMEG 010538
TAFMKL
TAF
KMKL 010538Z 0106/0206 VRB03KT P6SM FEW060 BKN150
     FM010900 VRB03KT P6SM VCSH SCT040 OVC090
      TEMPO 0111/0114 OVC025
     FM011400 19005KT 6SM -SHRA BKN015 OVC045
     FM011600 VRB03KT 5SM -SHRA BR OVC008
     FM012300 01005KT 6SM BR VCSH OVC005=



000
FTUS44 KMEG 010538
TAFMEM
TAF
KMEM 010538Z 0106/0206 02004KT P6SM VCSH FEW050 OVC090
      WS020/18050KT
      TEMPO 0110/0114 -SHRA SCT025 OVC060
     FM011400 11005KT 6SM -SHRA BKN015 OVC045
     FM011800 VRB03KT 5SM -SHRA BR OVC009
     FM020000 02007KT P6SM VCSH OVC007=



000
FTUS44 KMEG 010538
TAFTUP
TAF
KTUP 010538Z 0106/0206 VRB02KT P6SM SKC
     FM010800 18006KT P6SM OVC090
     FM011000 14004KT P6SM BKN018
     FM011600 19007KT 4SM -SHRA BKN009 OVC015
     FM020200 06004KT 6SM -SHRA OVC006=



000
FTUS44 KMEG 010538
TAFJBR
TAF
KJBR 010538Z 0106/0206 03004KT P6SM VCSH SCT040 OVC060
      WS020/18050KT
      TEMPO 0106/0110 -FZRAPL
     FM011030 04004KT 6SM -SHRA SCT015 OVC040
     FM011400 VRB03KT 5SM -SHRA BR BKN010 OVC035
     FM011900 02005KT 4SM -SHRA OVC008
     FM020000 02007KT P6SM VCSH OVC010=



000
FTUS44 KMEG 010538
TAFMKL
TAF
KMKL 010538Z 0106/0206 VRB03KT P6SM FEW060 BKN150
     FM010900 VRB03KT P6SM VCSH SCT040 OVC090
      TEMPO 0111/0114 OVC025
     FM011400 19005KT 6SM -SHRA BKN015 OVC045
     FM011600 VRB03KT 5SM -SHRA BR OVC008
     FM012300 01005KT 6SM BR VCSH OVC005=



000
FTUS44 KMEG 010538
TAFTUP
TAF
KTUP 010538Z 0106/0206 VRB02KT P6SM SKC
     FM010800 18006KT P6SM OVC090
     FM011000 14004KT P6SM BKN018
     FM011600 19007KT 4SM -SHRA BKN009 OVC015
     FM020200 06004KT 6SM -SHRA OVC006=



000
FTUS44 KMEG 010538
TAFJBR
TAF
KJBR 010538Z 0106/0206 03004KT P6SM VCSH SCT040 OVC060
      WS020/18050KT
      TEMPO 0106/0110 -FZRAPL
     FM011030 04004KT 6SM -SHRA SCT015 OVC040
     FM011400 VRB03KT 5SM -SHRA BR BKN010 OVC035
     FM011900 02005KT 4SM -SHRA OVC008
     FM020000 02007KT P6SM VCSH OVC010=



000
FTUS44 KMEG 010516 AAA
TAFJBR
TAF AMD
KJBR 010516Z 0105/0124 03004KT P6SM VCSH SCT040 OVC060
      TEMPO 0105/0109 -FZRAPL
     FM010930 04004KT 6SM -SHRA SCT015 OVC040
     FM011400 VRB03KT 5SM -SHRA BR BKN010 OVC035
     FM011900 02005KT 4SM -SHRA OVC008=



000
FTUS44 KMEG 010516 AAA
TAFJBR
TAF AMD
KJBR 010516Z 0105/0124 03004KT P6SM VCSH SCT040 OVC060
      TEMPO 0105/0109 -FZRAPL
     FM010930 04004KT 6SM -SHRA SCT015 OVC040
     FM011400 VRB03KT 5SM -SHRA BR BKN010 OVC035
     FM011900 02005KT 4SM -SHRA OVC008=



000
FTUS44 KMEG 010305 AAA
TAFMEM
TAF AMD
KMEM 010305Z 0103/0124 05005KT P6SM SCT080 BKN150
     FM010700 09004KT P6SM VCSH FEW025 OVC060
      TEMPO 0110/0114 5SM -RA BR FEW010 BKN025 OVC060
     FM011400 14005KT 4SM -RA BR OVC010
     FM011800 VRB03KT 5SM -RA BR OVC008=



000
FTUS44 KMEG 010305 AAA
TAFMEM
TAF AMD
KMEM 010305Z 0103/0124 05005KT P6SM SCT080 BKN150
     FM010700 09004KT P6SM VCSH FEW025 OVC060
      TEMPO 0110/0114 5SM -RA BR FEW010 BKN025 OVC060
     FM011400 14005KT 4SM -RA BR OVC010
     FM011800 VRB03KT 5SM -RA BR OVC008=



000
FTUS44 KMEG 282339
TAFTUP
TAF
KTUP 282339Z 0100/0124 10007KT P6SM BKN100
     FM010500 12005KT P6SM BKN015
     FM011000 14004KT 6SM BR VCSH OVC009
      TEMPO 0110/0114 4SM -DZ BR
     FM011600 17007KT P6SM VCSH OVC009
     FM011900 20005KT 4SM -SHRA OVC007=



000
FTUS44 KMEG 282339
TAFJBR
TAF
KJBR 282339Z 0100/0124 04006KT P6SM VCSH SCT040 OVC100
      TEMPO 0101/0105 -FZRAPL
     FM010500 03004KT P6SM -RA FEW015 OVC040
      TEMPO 0110/0113 4SM -RA BR OVC015
     FM011300 01005KT 4SM -RA BR OVC008=



000
FTUS44 KMEG 282339
TAFMEM
TAF
KMEM 282339Z 0100/0124 05005KT P6SM FEW060 BKN150
     FM010800 09004KT P6SM VCSH SCT025 OVC040
      TEMPO 0110/0114 5SM -RA BR SCT010 BKN025
     FM011400 14005KT 4SM -RA BR OVC010
     FM011800 VRB03KT 5SM -RA BR OVC008=



000
FTUS44 KMEG 282339
TAFMKL
TAF
KMKL 282339Z 0100/0124 VRB03KT P6SM FEW060 BKN150
     FM010900 VRB03KT P6SM VCSH SCT025 OVC040
      TEMPO 0111/0115 OVC025
     FM011500 17005KT 5SM -RA BR OVC012
     FM012100 VRB03KT 4SM -RA BR OVC008=



000
FTUS44 KMEG 282339
TAFMEM
TAF
KMEM 282339Z 0100/0124 05005KT P6SM FEW060 BKN150
     FM010800 09004KT P6SM VCSH SCT025 OVC040
      TEMPO 0110/0114 5SM -RA BR SCT010 BKN025
     FM011400 14005KT 4SM -RA BR OVC010
     FM011800 VRB03KT 5SM -RA BR OVC008=



000
FTUS44 KMEG 282339
TAFMKL
TAF
KMKL 282339Z 0100/0124 VRB03KT P6SM FEW060 BKN150
     FM010900 VRB03KT P6SM VCSH SCT025 OVC040
      TEMPO 0111/0115 OVC025
     FM011500 17005KT 5SM -RA BR OVC012
     FM012100 VRB03KT 4SM -RA BR OVC008=



000
FTUS44 KMEG 282339
TAFJBR
TAF
KJBR 282339Z 0100/0124 04006KT P6SM VCSH SCT040 OVC100
      TEMPO 0101/0105 -FZRAPL
     FM010500 03004KT P6SM -RA FEW015 OVC040
      TEMPO 0110/0113 4SM -RA BR OVC015
     FM011300 01005KT 4SM -RA BR OVC008=



000
FTUS44 KMEG 282339
TAFTUP
TAF
KTUP 282339Z 0100/0124 10007KT P6SM BKN100
     FM010500 12005KT P6SM BKN015
     FM011000 14004KT 6SM BR VCSH OVC009
      TEMPO 0110/0114 4SM -DZ BR
     FM011600 17007KT P6SM VCSH OVC009
     FM011900 20005KT 4SM -SHRA OVC007=



000
FTUS44 KMEG 282058 AAA
TAFMEM
TAF AMD
KMEM 282058Z 2821/0118 35005KT P6SM SCT070 BKN150
     FM010100 07005KT P6SM SCT040 OVC060 WS020/19040KT
     FM010800 09004KT P6SM VCSH SCT025 OVC040
      TEMPO 0109/0112 BKN025
     FM011600 14005KT 4SM -RA OVC015=



000
FTUS44 KMEG 282058 AAA
TAFMEM
TAF AMD
KMEM 282058Z 2821/0118 35005KT P6SM SCT070 BKN150
     FM010100 07005KT P6SM SCT040 OVC060 WS020/19040KT
     FM010800 09004KT P6SM VCSH SCT025 OVC040
      TEMPO 0109/0112 BKN025
     FM011600 14005KT 4SM -RA OVC015=



    US Dept of Commerce
    National Oceanic and Atmospheric Administration
    National Weather Service
    1325 East West Highway
    Silver Spring, MD 20910
    Page Author: NWS Internet Services Team
Disclaimer
Information Quality
Credits
Glossary
Privacy Policy
Freedom of Information Act (FOIA)
About Us
Career Opportunities